createdAt,value
2018-03-16T00:00:02.912Z,19.35
2018-03-16T00:02:29.391Z,18.40
2018-03-16T00:04:55.890Z,19.87
2018-03-16T00:07:22.470Z,21.50
2018-03-16T00:09:49.625Z,19.95
2018-03-16T00:12:17.102Z,22.08
2018-03-16T00:14:43.505Z,17.95
2018-03-16T00:17:10.016Z,19.87
2018-03-16T00:19:37.229Z,23.83
2018-03-16T00:22:03.695Z,25.37
2018-03-16T00:24:30.329Z,22.93
2018-03-16T00:26:56.807Z,19.60
2018-03-16T00:29:24.150Z,19.80
2018-03-16T00:31:51.466Z,19.73
2018-03-16T00:34:17.964Z,19.65
2018-03-16T00:36:44.441Z,20.88
2018-03-16T00:39:11.021Z,19.62
2018-03-16T00:41:38.217Z,24.05
2018-03-16T00:44:04.779Z,24.05
2018-03-16T00:46:31.236Z,22.05
2018-03-16T00:48:58.443Z,21.45
2018-03-16T00:51:24.912Z,22.73
2018-03-16T00:53:51.508Z,24.25
2018-03-16T00:56:17.966Z,19.25
2018-03-16T00:58:44.447Z,29.10
2018-03-16T01:01:11.167Z,26.62
2018-03-16T01:03:38.444Z,26.90
2018-03-16T01:06:05.005Z,22.83
2018-03-16T01:08:31.488Z,26.17
2018-03-16T01:10:58.737Z,23.85
2018-03-16T01:13:26.053Z,25.30
2018-03-16T01:15:52.531Z,24.98
2018-03-16T01:18:19.749Z,22.10
2018-03-16T01:20:46.197Z,24.20
2018-03-16T01:23:12.683Z,23.80
2018-03-16T01:25:39.150Z,24.37
2018-03-16T01:28:05.695Z,23.02
2018-03-16T01:30:32.241Z,26.98
2018-03-16T01:32:59.499Z,23.98
2018-03-16T01:35:26.737Z,28.33
2018-03-16T01:37:53.226Z,27.37
2018-03-16T01:40:19.734Z,25.75
2018-03-16T01:42:47.006Z,29.50
2018-03-16T01:45:13.476Z,28.08
2018-03-16T01:47:40.035Z,31.25
2018-03-16T01:50:06.442Z,35.47
2018-03-16T01:52:32.930Z,25.40
2018-03-16T01:54:59.403Z,28.67
2018-03-16T01:57:25.894Z,25.88
2018-03-16T01:59:53.099Z,25.95
2018-03-16T02:02:19.551Z,27.83
2018-03-16T02:04:46.023Z,25.12
2018-03-16T02:07:12.544Z,26.58
2018-03-16T02:09:39.726Z,27.48
2018-03-16T02:12:06.276Z,24.58
2018-03-16T02:14:32.790Z,25.42
2018-03-16T02:16:59.234Z,24.75
2018-03-16T02:19:25.678Z,25.00
2018-03-16T02:21:52.182Z,28.30
2018-03-16T02:24:18.627Z,27.95
2018-03-16T02:26:45.116Z,28.50
2018-03-16T02:29:11.563Z,25.08
2018-03-16T02:31:38.756Z,30.17
2018-03-16T02:34:05.226Z,30.37
2018-03-16T02:36:31.721Z,25.60
2018-03-16T02:38:58.172Z,29.45
2018-03-16T02:41:24.663Z,23.90
2018-03-16T02:43:51.136Z,22.05
2018-03-16T02:46:17.623Z,25.17
2018-03-16T02:48:44.067Z,19.20
2018-03-16T02:51:10.508Z,18.00
2018-03-16T02:53:37.003Z,17.95
2018-03-16T02:56:03.537Z,20.90
2018-03-16T02:58:30.022Z,17.30
2018-03-16T03:00:56.435Z,19.08
2018-03-16T03:03:23.052Z,18.87
2018-03-16T03:05:50.239Z,17.80
2018-03-16T03:08:16.739Z,16.45
2018-03-16T03:10:43.940Z,13.20
2018-03-16T03:13:10.423Z,15.82
2018-03-16T03:15:37.650Z,16.35
2018-03-16T03:18:04.093Z,14.70
2018-03-16T03:20:30.568Z,12.32
2018-03-16T03:22:57.012Z,12.60
2018-03-16T03:25:23.499Z,15.68
2018-03-16T03:27:50.827Z,13.60
2018-03-16T03:30:17.331Z,12.55
2018-03-16T03:32:43.784Z,13.65
2018-03-16T03:35:10.455Z,13.50
2018-03-16T03:37:36.875Z,14.07
2018-03-16T03:40:03.322Z,14.48
2018-03-16T03:42:29.792Z,16.12
2018-03-16T03:44:56.240Z,14.73
2018-03-16T03:47:22.868Z,14.85
2018-03-16T03:49:49.324Z,13.57
2018-03-16T03:52:15.842Z,15.52
2018-03-16T03:54:42.283Z,15.32
2018-03-16T03:57:08.789Z,18.20
2018-03-16T03:59:35.275Z,14.35
2018-03-16T04:02:01.771Z,17.10
2018-03-16T04:04:28.268Z,16.05
2018-03-16T04:07:02.311Z,14.57
2018-03-16T04:09:28.859Z,17.60
2018-03-16T04:11:55.948Z,13.62
2018-03-16T04:14:23.200Z,16.20
2018-03-16T04:16:49.659Z,14.30
2018-03-16T04:19:16.866Z,14.13
2018-03-16T04:21:43.406Z,15.18
2018-03-16T04:24:09.844Z,14.75
2018-03-16T04:26:36.499Z,16.35
2018-03-16T04:29:02.968Z,17.15
2018-03-16T04:31:29.485Z,16.55
2018-03-16T04:33:56.707Z,15.23
2018-03-16T04:36:23.152Z,13.57
2018-03-16T04:38:49.662Z,16.45
2018-03-16T04:41:16.148Z,16.00
2018-03-16T04:43:42.732Z,15.00
2018-03-16T04:46:09.280Z,15.05
2018-03-16T04:48:35.759Z,15.05
2018-03-16T04:51:02.242Z,12.98
2018-03-16T04:53:28.737Z,12.32
2018-03-16T04:55:55.245Z,13.70
2018-03-16T04:58:22.432Z,16.02
2018-03-16T05:00:48.863Z,18.10
2018-03-16T05:03:15.343Z,14.82
2018-03-16T05:05:41.897Z,12.65
2018-03-16T05:08:09.348Z,12.70
2018-03-16T05:10:35.807Z,12.80
2018-03-16T05:13:02.367Z,12.40
2018-03-16T05:15:28.898Z,13.25
2018-03-16T05:17:55.368Z,14.80
2018-03-16T05:20:22.587Z,10.45
2018-03-16T05:22:49.044Z,8.70
2018-03-16T05:25:16.280Z,10.95
2018-03-16T05:27:42.712Z,9.30
2018-03-16T05:30:09.267Z,7.00
2018-03-16T05:32:35.773Z,8.45
2018-03-16T05:35:02.240Z,7.80
2018-03-16T05:37:28.718Z,7.40
2018-03-16T05:39:55.172Z,7.55
2018-03-16T05:42:21.720Z,11.27
2018-03-16T05:44:48.194Z,10.80
2018-03-16T05:47:14.690Z,9.90
2018-03-16T05:49:41.167Z,9.05
2018-03-16T05:52:08.411Z,8.93
2018-03-16T05:54:34.903Z,9.65
2018-03-16T05:57:01.371Z,8.15
2018-03-16T05:59:27.983Z,5.80
2018-03-16T06:01:55.190Z,7.10
2018-03-16T06:04:21.683Z,5.83
2018-03-16T06:06:48.166Z,8.73
2018-03-16T06:09:14.658Z,6.07
2018-03-16T06:11:41.236Z,7.50
2018-03-16T06:14:07.675Z,6.70
2018-03-16T06:16:41.221Z,13.30
2018-03-16T06:19:07.750Z,8.77
2018-03-16T06:21:34.252Z,8.55
2018-03-16T06:24:00.773Z,10.95
2018-03-16T06:26:27.336Z,12.52
2018-03-16T06:28:53.841Z,13.30
2018-03-16T06:31:20.481Z,14.68
2018-03-16T06:33:46.981Z,11.45
2018-03-16T06:36:13.673Z,14.37
2018-03-16T06:38:40.161Z,11.77
2018-03-16T06:41:06.696Z,12.40
2018-03-16T06:43:34.017Z,14.07
2018-03-16T06:46:00.434Z,18.43
2018-03-16T06:48:26.925Z,14.73
2018-03-16T06:50:54.171Z,14.40
2018-03-16T06:53:20.635Z,15.20
2018-03-16T06:55:47.131Z,10.73
2018-03-16T06:58:13.559Z,9.97
2018-03-16T07:00:40.077Z,9.87
2018-03-16T07:03:06.517Z,8.73
2018-03-16T07:05:33.033Z,12.10
2018-03-16T07:07:59.676Z,10.80
2018-03-16T07:10:26.168Z,9.93
2018-03-16T07:12:52.684Z,11.83
2018-03-16T07:15:37.102Z,6.67
2018-03-16T07:18:03.597Z,6.73
2018-03-16T07:20:30.076Z,5.70
2018-03-16T07:22:56.535Z,6.77
2018-03-16T07:25:23.756Z,7.93
2018-03-16T07:27:50.310Z,10.40
2018-03-16T07:30:17.540Z,8.93
2018-03-16T07:32:44.100Z,10.70
2018-03-16T07:35:10.529Z,9.63
2018-03-16T07:37:36.983Z,8.97
2018-03-16T07:40:04.200Z,8.97
2018-03-16T07:42:30.627Z,9.97
2018-03-16T07:44:57.141Z,9.43
2018-03-16T07:47:24.474Z,9.40
2018-03-16T07:49:50.959Z,8.50
2018-03-16T07:52:17.505Z,9.43
2018-03-16T07:54:43.976Z,12.83
2018-03-16T07:57:10.499Z,8.50
2018-03-16T07:59:37.679Z,9.77
2018-03-16T08:02:04.174Z,16.00
2018-03-16T08:04:31.414Z,23.30
2018-03-16T08:06:58.101Z,3.33
2018-03-16T08:09:24.695Z,4.18
2018-03-16T08:11:51.108Z,3.92
2018-03-16T08:14:20.275Z,5.60
2018-03-16T08:16:46.756Z,4.53
2018-03-16T08:19:14.065Z,5.37
2018-03-16T08:21:40.530Z,4.90
2018-03-16T08:24:08.529Z,4.20
2018-03-16T08:26:35.798Z,4.77
2018-03-16T08:29:02.320Z,3.43
2018-03-16T08:31:29.495Z,5.27
2018-03-16T08:33:55.980Z,5.20
2018-03-16T08:36:22.557Z,10.00
2018-03-16T08:38:49.110Z,5.53
2018-03-16T08:41:15.644Z,7.17
2018-03-16T08:43:42.095Z,3.73
2018-03-16T08:49:04.577Z,1.40
2018-03-16T08:51:31.019Z,1.83
2018-03-16T08:53:57.460Z,3.73
2018-03-16T08:56:23.985Z,2.73
2018-03-16T08:58:50.550Z,2.77
2018-03-16T09:01:17.173Z,2.73
2018-03-16T09:03:43.553Z,1.87
2018-03-16T09:06:10.732Z,1.47
2018-03-16T09:08:37.222Z,1.90
2018-03-16T09:11:03.705Z,1.50
2018-03-16T09:13:30.198Z,6.93
2018-03-16T09:15:56.690Z,2.30
2018-03-16T09:18:23.883Z,2.67
2018-03-16T09:20:50.307Z,2.17
2018-03-16T09:23:16.744Z,1.60
2018-03-16T09:25:43.186Z,2.20
2018-03-16T09:28:10.332Z,1.20
2018-03-16T09:30:37.482Z,1.20
2018-03-16T09:33:04.728Z,3.50
2018-03-16T09:35:31.971Z,2.95
2018-03-16T09:37:58.386Z,2.33
2018-03-16T09:40:25.338Z,2.50
2018-03-16T09:42:52.899Z,1.95
2018-03-16T09:45:19.370Z,1.85
2018-03-16T09:47:45.859Z,2.58
2018-03-16T09:50:12.363Z,2.28
2018-03-16T09:52:38.786Z,1.33
2018-03-16T09:55:17.414Z,1.03
2018-03-16T09:57:43.875Z,1.23
2018-03-16T10:00:10.416Z,2.00
2018-03-16T10:02:36.858Z,2.10
2018-03-16T10:05:03.339Z,2.15
2018-03-16T10:07:30.634Z,3.00
2018-03-16T10:09:57.186Z,2.10
2018-03-16T10:12:23.795Z,2.07
2018-03-16T10:14:50.893Z,5.53
2018-03-16T10:17:18.154Z,6.93
2018-03-16T10:19:44.788Z,2.40
2018-03-16T10:22:11.285Z,3.23
2018-03-16T10:24:37.856Z,2.30
2018-03-16T10:27:04.337Z,2.50
2018-03-16T10:29:34.840Z,2.30
2018-03-16T10:32:04.053Z,1.93
2018-03-16T10:34:30.590Z,2.63
2018-03-16T10:36:57.098Z,1.10
2018-03-16T10:39:23.975Z,3.33
2018-03-16T10:41:50.503Z,2.40
2018-03-16T10:44:16.973Z,2.67
2018-03-16T10:46:44.230Z,2.50
2018-03-16T10:49:11.510Z,3.67
2018-03-16T10:51:37.954Z,4.30
2018-03-16T10:54:04.548Z,2.57
2018-03-16T10:56:31.768Z,3.10
2018-03-16T10:58:58.232Z,3.00
2018-03-16T11:01:25.479Z,2.50
2018-03-16T11:03:53.929Z,3.30
2018-03-16T11:06:26.314Z,3.60
2018-03-16T11:08:52.875Z,3.07
2018-03-16T11:11:20.047Z,5.20
2018-03-16T11:13:46.518Z,2.67
2018-03-16T11:16:12.978Z,2.90
2018-03-16T11:18:39.468Z,4.10
2018-03-16T11:21:05.906Z,4.47
2018-03-16T11:23:32.427Z,3.17
2018-03-16T11:25:59.578Z,3.73
2018-03-16T11:28:26.000Z,3.70
2018-03-16T11:30:52.528Z,3.03
2018-03-16T11:33:18.946Z,4.33
2018-03-16T11:35:45.452Z,2.37
2018-03-16T11:38:11.858Z,3.37
2018-03-16T11:40:39.128Z,3.93
2018-03-16T11:43:05.781Z,3.10
2018-03-16T11:45:33.049Z,2.80
2018-03-16T11:47:59.528Z,2.77
2018-03-16T11:50:26.891Z,2.93
2018-03-16T11:52:53.420Z,4.40
2018-03-16T11:55:20.826Z,4.60
2018-03-16T11:57:48.026Z,5.77
2018-03-16T12:00:14.498Z,3.80
2018-03-16T12:02:41.738Z,3.07
2018-03-16T12:05:08.128Z,3.53
2018-03-16T12:07:34.560Z,3.40
2018-03-16T12:10:01.035Z,3.60
2018-03-16T12:12:27.514Z,4.20
2018-03-16T12:14:53.998Z,5.30
2018-03-16T12:17:20.526Z,3.10
2018-03-16T12:19:46.981Z,5.93
2018-03-16T12:22:14.202Z,4.47
2018-03-16T12:24:40.605Z,5.97
2018-03-16T12:27:07.164Z,5.80
2018-03-16T12:29:33.600Z,5.63
2018-03-16T12:32:00.759Z,7.47
2018-03-16T12:34:27.204Z,4.87
2018-03-16T12:36:53.604Z,8.07
2018-03-16T12:39:20.033Z,4.60
2018-03-16T12:41:47.174Z,7.10
2018-03-16T12:44:13.759Z,4.63
2018-03-16T12:46:40.909Z,6.33
2018-03-16T12:49:08.127Z,4.40
2018-03-16T12:51:42.079Z,5.80
2018-03-16T12:54:01.196Z,2.87
2018-03-16T12:56:27.625Z,4.23
2018-03-16T12:58:54.100Z,3.00
2018-03-16T13:01:20.570Z,3.40
2018-03-16T13:03:47.022Z,5.30
2018-03-16T13:06:13.580Z,3.13
2018-03-16T13:08:40.033Z,4.93
2018-03-16T13:11:07.333Z,4.53
2018-03-16T13:13:33.757Z,2.70
2018-03-16T13:16:00.251Z,5.50
2018-03-16T13:18:27.410Z,3.50
2018-03-16T13:20:54.606Z,4.10
2018-03-16T13:23:21.057Z,6.43
2018-03-16T13:25:47.483Z,1.60
2018-03-16T13:28:14.105Z,4.93
2018-03-16T13:30:40.552Z,2.70
2018-03-16T13:33:07.008Z,4.10
2018-03-16T13:35:34.203Z,5.40
2018-03-16T13:38:00.685Z,6.00
2018-03-16T13:40:27.877Z,7.73
2018-03-16T13:42:54.333Z,2.50
2018-03-16T13:45:20.776Z,2.90
2018-03-16T13:47:47.201Z,2.30
2018-03-16T13:50:13.638Z,3.80
2018-03-16T13:52:40.067Z,7.00
2018-03-16T13:55:06.546Z,2.93
2018-03-16T13:57:33.736Z,8.90
2018-03-16T14:00:00.170Z,3.57
2018-03-16T14:02:26.629Z,1.63
2018-03-16T14:04:53.097Z,5.20
2018-03-16T14:07:19.591Z,2.63
2018-03-16T14:09:46.053Z,4.90
2018-03-16T14:12:12.562Z,1.90
2018-03-16T14:14:45.578Z,2.97
2018-03-16T14:17:12.182Z,1.30
2018-03-16T14:19:38.634Z,1.27
2018-03-16T14:22:05.058Z,1.40
2018-03-16T14:24:31.682Z,1.20
2018-03-16T14:27:02.042Z,3.67
2018-03-16T14:29:28.569Z,2.13
2018-03-16T14:31:55.781Z,1.50
2018-03-16T14:34:22.233Z,2.40
2018-03-16T14:36:48.846Z,1.57
2018-03-16T14:39:15.409Z,1.40
2018-03-16T14:41:42.183Z,0.93
2018-03-16T14:44:09.501Z,1.90
2018-03-16T14:46:36.047Z,2.07
2018-03-16T14:51:58.813Z,3.53
2018-03-16T14:54:26.203Z,3.80
2018-03-16T14:56:52.698Z,2.83
2018-03-16T14:59:19.146Z,1.70
2018-03-16T15:01:45.763Z,2.40
2018-03-16T15:04:21.620Z,1.47
2018-03-16T15:06:49.275Z,1.60
2018-03-16T15:09:15.856Z,2.73
2018-03-16T15:11:43.223Z,5.30
2018-03-16T15:14:10.472Z,1.47
2018-03-16T15:16:37.724Z,1.93
2018-03-16T15:19:04.961Z,2.40
2018-03-16T15:21:31.596Z,2.70
2018-03-16T15:23:58.248Z,2.03
2018-03-16T15:26:25.462Z,2.37
2018-03-16T15:28:52.089Z,4.57
2018-03-16T15:31:18.564Z,2.50
2018-03-16T15:33:45.825Z,2.60
2018-03-16T15:36:13.043Z,2.10
2018-03-16T15:38:39.607Z,3.47
2018-03-16T15:41:06.886Z,2.60
2018-03-16T15:43:33.400Z,3.17
2018-03-16T15:46:00.731Z,4.30
2018-03-16T15:48:27.293Z,4.50
2018-03-16T15:50:53.841Z,2.90
2018-03-16T15:53:20.358Z,5.40
2018-03-16T15:55:47.786Z,4.50
2018-03-16T15:58:14.303Z,3.37
2018-03-16T16:00:40.858Z,4.57
2018-03-16T16:03:07.481Z,3.00
2018-03-16T16:05:35.147Z,2.73
2018-03-16T16:08:01.748Z,5.10
2018-03-16T16:10:28.208Z,4.30
2018-03-16T16:12:55.062Z,4.07
2018-03-16T16:15:21.836Z,4.13
2018-03-16T16:17:49.156Z,5.50
2018-03-16T16:20:15.665Z,4.67
2018-03-16T16:22:42.320Z,5.93
2018-03-16T16:25:09.644Z,12.20
2018-03-16T16:27:36.241Z,7.50
2018-03-16T16:30:02.675Z,4.60
2018-03-16T16:32:29.151Z,6.77
2018-03-16T16:34:55.655Z,3.87
2018-03-16T16:37:22.956Z,7.97
2018-03-16T16:39:49.690Z,4.30
2018-03-16T16:42:16.256Z,4.47
2018-03-16T16:44:42.853Z,5.27
2018-03-16T16:47:09.355Z,8.73
2018-03-16T16:49:36.116Z,5.17
2018-03-16T16:52:02.654Z,7.70
2018-03-16T16:54:29.200Z,6.27
2018-03-16T16:56:55.922Z,5.83
2018-03-16T16:59:22.424Z,7.87
2018-03-16T17:01:49.103Z,8.03
2018-03-16T17:04:15.656Z,5.80
2018-03-16T17:06:42.269Z,9.57
2018-03-16T17:09:08.723Z,5.83
2018-03-16T17:11:35.234Z,7.47
2018-03-16T17:14:01.920Z,3.47
2018-03-16T17:16:28.512Z,8.77
2018-03-16T17:18:55.128Z,4.73
2018-03-16T17:21:22.435Z,3.87
2018-03-16T17:23:48.928Z,6.13
2018-03-16T17:26:16.173Z,4.70
2018-03-16T17:28:43.475Z,6.67
2018-03-16T17:34:06.741Z,6.97
2018-03-16T17:36:33.219Z,6.17
2018-03-16T17:38:59.820Z,5.60
2018-03-16T17:41:26.407Z,7.00
2018-03-16T17:43:53.750Z,4.57
2018-03-16T17:46:21.074Z,2.93
2018-03-16T17:48:47.571Z,7.40
2018-03-16T17:51:14.127Z,5.60
2018-03-16T17:53:40.636Z,6.33
2018-03-16T17:56:07.866Z,6.07
2018-03-16T17:58:34.505Z,8.87
2018-03-16T18:01:01.853Z,6.57
2018-03-16T18:03:28.332Z,4.83
2018-03-16T18:05:55.326Z,6.27
2018-03-16T18:08:21.839Z,7.53
2018-03-16T18:10:49.302Z,9.97
2018-03-16T18:13:16.009Z,10.97
2018-03-16T18:15:42.667Z,14.97
2018-03-16T18:18:09.149Z,14.40
2018-03-16T18:20:36.356Z,14.77
2018-03-16T18:23:02.870Z,10.20
2018-03-16T18:25:29.354Z,12.57
2018-03-16T18:27:55.875Z,10.10
2018-03-16T18:30:22.370Z,7.83
2018-03-16T18:32:50.136Z,12.87
2018-03-16T18:35:17.399Z,9.70
2018-03-16T18:37:44.025Z,7.77
2018-03-16T18:40:10.538Z,9.77
2018-03-16T18:42:37.085Z,8.33
2018-03-16T18:45:03.569Z,8.60
2018-03-16T18:47:30.261Z,10.43
2018-03-16T18:49:56.804Z,10.30
2018-03-16T18:52:23.357Z,10.18
2018-03-16T18:54:49.967Z,10.45
2018-03-16T18:57:16.432Z,6.95
2018-03-16T18:59:43.078Z,10.55
2018-03-16T19:02:09.629Z,13.83
2018-03-16T19:04:36.117Z,9.45
2018-03-16T19:07:02.839Z,8.55
2018-03-16T19:09:29.337Z,12.23
2018-03-16T19:11:55.951Z,20.30
2018-03-16T19:14:22.493Z,30.58
2018-03-16T19:16:49.066Z,31.48
2018-03-16T19:19:16.315Z,55.78
2018-03-16T19:21:42.833Z,53.67
2018-03-16T19:24:09.541Z,28.30
2018-03-16T19:29:10.209Z,9.13
2018-03-16T19:31:36.808Z,14.32
2018-03-16T19:34:03.309Z,17.40
2018-03-16T19:36:29.964Z,12.35
2018-03-16T19:48:41.576Z,12.63
2018-03-16T19:51:08.704Z,12.18
2018-03-16T19:53:35.950Z,11.88
2018-03-16T19:56:02.592Z,9.85
2018-03-16T19:58:29.162Z,11.02
2018-03-16T20:00:56.390Z,15.63
2018-03-16T20:03:23.040Z,10.90
2018-03-16T20:05:49.548Z,12.32
2018-03-16T20:08:16.080Z,11.80
2018-03-16T20:10:42.792Z,14.45
2018-03-16T20:13:09.279Z,16.52
2018-03-16T20:15:37.454Z,16.77
2018-03-16T20:18:04.097Z,14.38
2018-03-16T20:20:30.642Z,17.25
2018-03-16T20:22:57.145Z,19.75
2018-03-16T20:25:23.625Z,22.05
2018-03-16T20:27:50.855Z,15.00
2018-03-16T20:30:17.441Z,16.33
2018-03-16T20:32:44.189Z,22.42
2018-03-16T20:35:10.823Z,21.12
2018-03-16T20:37:37.399Z,30.55
2018-03-16T20:40:03.919Z,25.90
2018-03-16T20:42:30.398Z,23.52
2018-03-16T20:44:57.627Z,17.30
2018-03-16T20:47:24.164Z,10.13
2018-03-16T20:49:50.647Z,16.40
2018-03-16T20:52:17.110Z,16.83
2018-03-16T20:54:43.608Z,16.50
2018-03-16T20:57:10.068Z,15.85
2018-03-16T20:59:36.560Z,20.42
2018-03-16T21:02:03.789Z,21.58
2018-03-16T21:04:30.284Z,23.92
2018-03-16T21:06:57.103Z,20.17
2018-03-16T21:09:23.659Z,19.67
2018-03-16T21:11:50.244Z,21.15
2018-03-16T21:14:17.508Z,19.62
2018-03-16T21:16:44.106Z,17.67
2018-03-16T21:19:10.580Z,19.17
2018-03-16T21:21:37.881Z,18.85
2018-03-16T21:24:04.350Z,23.45
2018-03-16T21:26:30.895Z,26.70
2018-03-16T21:28:58.066Z,25.50
2018-03-16T21:31:25.155Z,21.90
2018-03-16T21:33:51.698Z,16.85
2018-03-16T21:36:18.309Z,22.87
2018-03-16T21:38:44.815Z,20.80
2018-03-16T21:41:11.283Z,17.98
2018-03-16T21:43:37.942Z,17.48
2018-03-16T21:46:05.222Z,22.42
2018-03-16T21:48:31.728Z,18.62
2018-03-16T21:50:58.184Z,12.95
2018-03-16T21:53:25.404Z,17.90
2018-03-16T21:55:51.895Z,15.23
2018-03-16T21:58:18.374Z,15.43
2018-03-16T22:00:44.837Z,16.42
2018-03-16T22:03:12.069Z,13.02
2018-03-16T22:05:38.567Z,15.45
2018-03-16T22:08:05.181Z,15.88
2018-03-16T22:10:33.008Z,14.68
2018-03-16T22:12:59.685Z,22.37
2018-03-16T22:15:26.259Z,19.23
2018-03-16T22:17:53.040Z,18.48
2018-03-16T22:20:20.580Z,21.77
2018-03-16T22:22:47.196Z,18.25
2018-03-16T22:25:13.762Z,18.62
2018-03-16T22:27:40.359Z,19.35
2018-03-16T22:30:06.834Z,21.58
2018-03-16T22:32:33.384Z,17.17
2018-03-16T22:35:00.630Z,20.58
2018-03-16T22:37:28.348Z,19.30
2018-03-16T22:39:55.446Z,23.33
2018-03-16T22:42:22.099Z,25.60
2018-03-16T22:44:48.713Z,22.05
2018-03-16T22:47:15.229Z,26.27
2018-03-16T22:49:41.933Z,18.45
2018-03-16T22:52:08.386Z,18.85
2018-03-16T22:54:34.923Z,17.92
2018-03-16T22:57:01.403Z,31.92
2018-03-16T22:59:28.781Z,20.62
2018-03-16T23:01:55.256Z,25.75
2018-03-16T23:04:21.977Z,17.98
2018-03-16T23:06:48.465Z,19.48
2018-03-16T23:09:15.742Z,15.65
2018-03-16T23:11:42.192Z,25.75
2018-03-16T23:14:08.700Z,20.23
2018-03-16T23:16:35.223Z,26.15
2018-03-16T23:19:02.771Z,18.83
2018-03-16T23:21:29.259Z,20.45
2018-03-16T23:23:55.836Z,22.83
2018-03-16T23:26:22.333Z,19.95
2018-03-16T23:28:48.895Z,21.05
2018-03-16T23:31:15.417Z,25.88
2018-03-16T23:33:41.848Z,17.75
2018-03-16T23:36:08.514Z,21.20
2018-03-16T23:38:35.048Z,18.62
2018-03-16T23:43:58.142Z,18.33
2018-03-16T23:46:25.361Z,17.67
2018-03-16T23:48:51.864Z,19.48
2018-03-16T23:51:18.308Z,19.58
2018-03-16T23:53:44.892Z,19.17
2018-03-16T23:56:12.099Z,22.52
2018-03-16T23:58:38.803Z,17.95
